createdAt,value
2023-04-18T00:01:36.350Z,61.32
2023-04-18T00:04:02.849Z,60.97
2023-04-18T00:06:29.421Z,60.95
2023-04-18T00:08:55.753Z,61.54
2023-04-18T00:11:22.066Z,62.07
2023-04-18T00:13:48.387Z,62.34
2023-04-18T00:16:14.797Z,62.20
2023-04-18T00:18:41.237Z,62.19
2023-04-18T00:21:07.550Z,61.65
2023-04-18T00:23:33.870Z,62.06
2023-04-18T00:26:00.200Z,62.55
2023-04-18T00:28:26.532Z,62.77
2023-04-18T00:30:52.897Z,61.76
2023-04-18T00:33:19.250Z,62.29
2023-04-18T00:35:45.578Z,61.93
2023-04-18T00:38:11.893Z,61.99
2023-04-18T00:40:38.216Z,61.82
2023-04-18T00:43:04.582Z,62.16
2023-04-18T00:45:30.920Z,62.15
2023-04-18T00:47:57.294Z,62.04
2023-04-18T00:50:23.734Z,62.02
2023-04-18T00:52:50.046Z,62.51
2023-04-18T00:55:16.356Z,63.20
2023-04-18T00:57:42.652Z,62.58
2023-04-18T01:00:08.973Z,62.61
2023-04-18T01:02:35.422Z,62.90
2023-04-18T01:05:01.862Z,63.00
2023-04-18T01:07:28.164Z,62.99
2023-04-18T01:09:54.468Z,63.06
2023-04-18T01:12:20.802Z,63.46
2023-04-18T01:14:47.132Z,63.49
2023-04-18T01:17:13.580Z,63.09
2023-04-18T01:19:39.935Z,63.13
2023-04-18T01:22:06.269Z,63.48
2023-04-18T01:24:32.600Z,63.13
2023-04-18T01:26:58.927Z,62.69
2023-04-18T01:29:25.262Z,63.25
2023-04-18T01:31:51.588Z,63.04
2023-04-18T01:34:17.944Z,63.08
2023-04-18T01:36:44.302Z,62.99
2023-04-18T01:39:10.613Z,62.47
2023-04-18T01:41:36.913Z,62.82
2023-04-18T01:44:03.223Z,62.95
2023-04-18T01:46:29.612Z,62.91
2023-04-18T01:48:55.937Z,62.96
2023-04-18T01:51:22.239Z,62.84
2023-04-18T01:53:48.555Z,62.35
2023-04-18T01:56:14.897Z,62.50
2023-04-18T01:58:41.199Z,61.96
2023-04-18T02:01:07.582Z,62.33
2023-04-18T02:03:34.099Z,62.44
2023-04-18T02:06:00.535Z,62.34
2023-04-18T02:08:26.886Z,62.46
2023-04-18T02:10:53.231Z,62.97
2023-04-18T02:13:19.528Z,62.58
2023-04-18T02:15:45.891Z,62.21
2023-04-18T02:18:12.237Z,62.56
2023-04-18T02:20:38.549Z,62.69
2023-04-18T02:23:04.848Z,62.29
2023-04-18T02:25:31.170Z,63.01
2023-04-18T02:27:57.488Z,62.71
2023-04-18T02:30:23.817Z,62.95
2023-04-18T02:32:50.157Z,62.95
2023-04-18T02:35:16.508Z,62.63
2023-04-18T02:37:42.857Z,62.91
2023-04-18T02:40:09.190Z,63.15
2023-04-18T02:42:35.491Z,62.82
2023-04-18T02:45:01.812Z,62.97
2023-04-18T02:47:28.150Z,62.33
2023-04-18T02:49:54.457Z,62.48
2023-04-18T02:52:20.782Z,62.78
2023-04-18T02:54:47.107Z,62.76
2023-04-18T02:57:13.414Z,63.34
2023-04-18T02:59:39.729Z,63.00
2023-04-18T03:02:06.070Z,62.59
2023-04-18T03:04:32.450Z,62.28
2023-04-18T03:06:58.782Z,62.80
2023-04-18T03:09:25.085Z,62.42
2023-04-18T03:11:51.394Z,62.39
2023-04-18T03:14:17.745Z,62.55
2023-04-18T03:16:44.079Z,61.98
2023-04-18T03:19:10.411Z,62.67
2023-04-18T03:21:36.720Z,61.93
2023-04-18T03:24:03.038Z,61.85
2023-04-18T03:26:29.357Z,62.23
2023-04-18T03:28:55.686Z,61.48
2023-04-18T03:31:22.061Z,61.79
2023-04-18T03:33:48.444Z,61.51
2023-04-18T03:36:14.769Z,62.29
2023-04-18T03:38:41.076Z,61.67
2023-04-18T03:41:07.394Z,61.51
2023-04-18T03:43:33.744Z,60.94
2023-04-18T03:46:00.167Z,61.01
2023-04-18T03:48:26.521Z,61.64
2023-04-18T03:50:52.854Z,61.32
2023-04-18T03:53:19.172Z,61.28
2023-04-18T03:55:45.483Z,61.57
2023-04-18T03:58:11.838Z,60.96
2023-04-18T04:00:38.137Z,61.36
2023-04-18T04:03:04.556Z,60.57
2023-04-18T04:05:31.013Z,61.29
2023-04-18T04:07:57.332Z,60.38
2023-04-18T04:10:23.626Z,60.46
2023-04-18T04:12:49.966Z,60.49
2023-04-18T04:15:16.288Z,61.00
2023-04-18T04:17:42.688Z,60.92
2023-04-18T04:20:09.017Z,60.67
2023-04-18T04:22:35.344Z,61.15
2023-04-18T04:25:01.661Z,61.39
2023-04-18T04:27:27.989Z,61.57
2023-04-18T04:29:54.320Z,61.28
2023-04-18T04:32:20.645Z,61.76
2023-04-18T04:34:46.993Z,61.23
2023-04-18T04:37:13.333Z,61.14
2023-04-18T04:39:39.647Z,61.63
2023-04-18T04:42:05.948Z,61.52
2023-04-18T04:44:32.280Z,61.90
2023-04-18T04:46:58.651Z,61.73
2023-04-18T04:49:24.974Z,62.06
2023-04-18T04:51:51.289Z,62.17
2023-04-18T04:54:17.595Z,61.77
2023-04-18T04:56:43.918Z,62.70
2023-04-18T04:59:10.218Z,62.39
2023-04-18T05:01:36.628Z,62.35
2023-04-18T05:04:03.044Z,62.26
2023-04-18T05:06:29.462Z,61.96
2023-04-18T05:08:55.800Z,62.96
2023-04-18T05:11:22.109Z,62.76
2023-04-18T05:13:48.443Z,62.60
2023-04-18T05:16:14.829Z,62.57
2023-04-18T05:18:41.176Z,62.78
2023-04-18T05:21:07.517Z,62.49
2023-04-18T05:23:33.820Z,62.80
2023-04-18T05:26:00.153Z,62.67
2023-04-18T05:28:26.455Z,63.02
2023-04-18T05:30:52.846Z,62.84
2023-04-18T05:33:19.220Z,62.77
2023-04-18T05:35:45.533Z,63.12
2023-04-18T05:38:11.880Z,63.19
2023-04-18T05:40:38.238Z,63.04
2023-04-18T05:43:04.567Z,63.35
2023-04-18T05:45:30.887Z,62.81
2023-04-18T05:47:57.248Z,63.26
2023-04-18T05:50:23.611Z,63.13
2023-04-18T05:52:49.942Z,62.96
2023-04-18T05:55:16.271Z,63.05
2023-04-18T05:57:42.610Z,63.49
2023-04-18T06:00:08.936Z,63.13
2023-04-18T06:02:35.419Z,63.00
2023-04-18T06:05:02.009Z,63.39
2023-04-18T06:07:28.439Z,63.40
2023-04-18T06:09:54.752Z,63.93
2023-04-18T06:12:21.075Z,63.72
2023-04-18T06:14:47.409Z,63.57
2023-04-18T06:17:13.751Z,63.40
2023-04-18T06:19:40.077Z,63.63
2023-04-18T06:22:06.405Z,63.70
2023-04-18T06:24:32.723Z,63.83
2023-04-18T06:26:59.043Z,63.28
2023-04-18T06:29:25.381Z,63.79
2023-04-18T06:31:51.742Z,63.44
2023-04-18T06:34:18.162Z,63.26
2023-04-18T06:36:44.514Z,62.99
2023-04-18T06:39:10.849Z,63.10
2023-04-18T06:41:37.192Z,62.99
2023-04-18T06:44:04.611Z,63.16
2023-04-18T06:46:31.293Z,62.83
2023-04-18T06:48:57.701Z,62.66
2023-04-18T06:51:24.020Z,62.37
2023-04-18T06:53:50.325Z,62.80
2023-04-18T06:56:16.662Z,63.04
2023-04-18T06:58:42.967Z,62.23
2023-04-18T07:01:09.355Z,62.10
2023-04-18T07:03:35.783Z,62.01
2023-04-18T07:06:02.150Z,61.42
2023-04-18T07:08:28.480Z,61.60
2023-04-18T07:10:54.800Z,61.15
2023-04-18T07:13:21.171Z,60.55
2023-04-18T07:15:47.494Z,60.97
2023-04-18T07:18:20.536Z,61.30
2023-04-18T07:20:53.029Z,61.19
2023-04-18T07:23:19.344Z,60.31
2023-04-18T07:25:45.668Z,60.41
2023-04-18T07:28:11.983Z,61.27
2023-04-18T07:30:38.350Z,60.81
2023-04-18T07:33:04.710Z,60.04
2023-04-18T07:35:31.080Z,59.73
2023-04-18T07:37:57.410Z,59.75
2023-04-18T07:40:23.741Z,59.56
2023-04-18T07:42:50.058Z,60.15
2023-04-18T07:45:16.381Z,59.35
2023-04-18T07:47:42.712Z,59.41
2023-04-18T07:50:09.045Z,59.64
2023-04-18T07:52:36.824Z,59.22
2023-04-18T07:55:04.479Z,59.41
2023-04-18T07:57:30.797Z,59.67
2023-04-18T07:59:57.112Z,58.95
2023-04-18T08:02:23.621Z,58.21
2023-04-18T08:04:50.194Z,57.61
2023-04-18T08:07:16.742Z,57.67
2023-04-18T08:09:43.061Z,57.73
2023-04-18T08:12:09.379Z,57.95
2023-04-18T08:14:35.702Z,57.67
2023-04-18T08:17:02.044Z,57.52
2023-04-18T08:19:28.374Z,57.04
2023-04-18T08:21:54.690Z,57.17
2023-04-18T08:24:21.019Z,58.31
2023-04-18T08:26:47.327Z,57.89
2023-04-18T08:29:13.819Z,57.77
2023-04-18T08:31:40.336Z,55.81
2023-04-18T08:34:06.716Z,56.18
2023-04-18T08:36:33.029Z,56.08
2023-04-18T08:38:59.322Z,55.45
2023-04-18T08:41:25.622Z,56.23
2023-04-18T08:43:51.940Z,56.10
2023-04-18T08:46:18.291Z,55.74
2023-04-18T08:48:44.607Z,55.76
2023-04-18T08:51:10.926Z,56.16
2023-04-18T08:53:37.239Z,55.61
2023-04-18T08:56:03.616Z,55.52
2023-04-18T08:58:29.944Z,56.12
2023-04-18T09:00:56.321Z,56.07
2023-04-18T09:03:22.782Z,55.21
2023-04-18T09:05:49.126Z,55.65
2023-04-18T09:08:15.442Z,55.36
2023-04-18T09:10:41.746Z,54.69
2023-04-18T09:13:08.058Z,54.83
2023-04-18T09:15:34.387Z,55.09
2023-04-18T09:18:00.792Z,53.88
2023-04-18T09:20:27.140Z,54.39
2023-04-18T09:22:53.465Z,54.75
2023-04-18T09:25:19.774Z,55.00
2023-04-18T09:27:46.094Z,54.06
2023-04-18T09:30:12.422Z,55.03
2023-04-18T09:32:38.767Z,54.34
2023-04-18T09:35:05.199Z,53.92
2023-04-18T09:37:31.551Z,53.08
2023-04-18T09:39:57.877Z,52.72
2023-04-18T09:42:25.547Z,53.10
2023-04-18T09:44:54.231Z,52.94
2023-04-18T09:47:22.156Z,52.69
2023-04-18T09:49:48.519Z,52.83
2023-04-18T09:52:14.921Z,53.74
2023-04-18T09:54:41.261Z,52.51
2023-04-18T09:57:07.581Z,52.79
2023-04-18T09:59:33.890Z,53.12
2023-04-18T10:02:00.320Z,51.69
2023-04-18T10:04:26.793Z,51.79
2023-04-18T10:06:53.192Z,51.74
2023-04-18T10:09:19.499Z,51.96
2023-04-18T10:11:45.807Z,51.75
2023-04-18T10:14:12.297Z,51.59
2023-04-18T10:16:38.892Z,52.25
2023-04-18T10:19:05.324Z,51.50
2023-04-18T10:21:31.647Z,51.73
2023-04-18T10:23:57.984Z,51.08
2023-04-18T10:26:25.375Z,50.91
2023-04-18T10:28:51.714Z,50.07
2023-04-18T10:31:18.079Z,51.48
2023-04-18T10:33:49.614Z,50.86
2023-04-18T10:36:23.047Z,50.52
2023-04-18T10:38:49.392Z,50.36
2023-04-18T10:41:15.740Z,49.98
2023-04-18T10:43:42.076Z,49.65
2023-04-18T10:46:14.388Z,50.29
2023-04-18T10:48:50.457Z,50.54
2023-04-18T10:51:16.822Z,49.37
2023-04-18T10:53:43.216Z,49.19
2023-04-18T10:56:09.525Z,48.92
2023-04-18T10:58:35.844Z,48.57
2023-04-18T11:01:02.352Z,48.30
2023-04-18T11:03:28.765Z,49.37
2023-04-18T11:05:55.101Z,48.35
2023-04-18T11:08:21.857Z,48.32
2023-04-18T11:10:48.185Z,47.83
2023-04-18T11:13:14.517Z,47.85
2023-04-18T11:15:40.837Z,48.78
2023-04-18T11:18:07.245Z,47.50
2023-04-18T11:20:33.602Z,47.35
2023-04-18T11:22:59.914Z,48.03
2023-04-18T11:25:26.273Z,47.77
2023-04-18T11:27:52.640Z,47.33
2023-04-18T11:30:19.030Z,47.03
2023-04-18T11:32:45.473Z,47.47
2023-04-18T11:35:11.831Z,47.06
2023-04-18T11:37:38.153Z,46.51
2023-04-18T11:40:04.481Z,47.17
2023-04-18T11:42:30.804Z,46.91
2023-04-18T11:44:57.128Z,47.59
2023-04-18T11:47:23.468Z,47.06
2023-04-18T11:49:49.816Z,46.47
2023-04-18T11:52:16.135Z,46.38
2023-04-18T11:54:42.442Z,46.24
2023-04-18T11:57:08.778Z,46.13
2023-04-18T11:59:35.122Z,46.91
2023-04-18T12:02:14.757Z,46.77
2023-04-18T12:04:43.059Z,46.26
2023-04-18T12:07:09.524Z,45.49
2023-04-18T12:09:35.849Z,45.49
2023-04-18T12:12:02.203Z,46.29
2023-04-18T12:14:28.731Z,46.18
2023-04-18T12:16:55.061Z,45.88
2023-04-18T12:19:21.392Z,45.58
2023-04-18T12:21:47.732Z,45.67
2023-04-18T12:24:14.393Z,45.34
2023-04-18T12:26:40.920Z,45.51
2023-04-18T12:29:07.234Z,45.95
2023-04-18T12:31:33.575Z,45.43
2023-04-18T12:33:59.973Z,45.19
2023-04-18T12:36:26.296Z,44.70
2023-04-18T12:38:52.602Z,45.16
2023-04-18T12:41:18.915Z,45.34
2023-04-18T12:43:45.230Z,43.83
2023-04-18T12:46:11.570Z,44.23
2023-04-18T12:48:37.912Z,43.96
2023-04-18T12:51:04.221Z,44.76
2023-04-18T12:53:30.524Z,43.76
2023-04-18T12:55:56.849Z,44.33
2023-04-18T12:58:23.183Z,44.03
2023-04-18T13:00:49.533Z,43.85
2023-04-18T13:03:16.011Z,43.04
2023-04-18T13:05:42.503Z,43.50
2023-04-18T13:08:16.938Z,43.21
2023-04-18T13:10:44.388Z,43.99
2023-04-18T13:13:10.807Z,43.41
2023-04-18T13:15:37.183Z,43.06
2023-04-18T13:18:03.672Z,42.92
2023-04-18T13:20:30.005Z,43.67
2023-04-18T13:22:56.471Z,43.31
2023-04-18T13:25:22.793Z,43.29
2023-04-18T13:27:49.111Z,44.17
2023-04-18T13:30:15.450Z,44.07
2023-04-18T13:32:42.132Z,41.72
2023-04-18T13:35:09.779Z,41.90
2023-04-18T13:37:36.114Z,42.23
2023-04-18T13:40:02.495Z,42.26
2023-04-18T13:42:28.826Z,41.42
2023-04-18T13:44:55.148Z,42.51
2023-04-18T13:47:21.535Z,42.29
2023-04-18T13:49:47.885Z,42.76
2023-04-18T13:52:14.210Z,42.14
2023-04-18T13:54:40.540Z,41.84
2023-04-18T13:57:06.865Z,41.17
2023-04-18T13:59:33.200Z,41.66
2023-04-18T14:01:59.660Z,42.16
2023-04-18T14:04:26.228Z,40.92
2023-04-18T14:06:52.733Z,41.13
2023-04-18T14:09:19.052Z,41.46
2023-04-18T14:11:45.389Z,40.85
2023-04-18T14:14:11.716Z,40.45
2023-04-18T14:16:38.026Z,41.28
2023-04-18T14:19:04.376Z,41.42
2023-04-18T14:21:30.706Z,41.55
2023-04-18T14:23:57.032Z,42.17
2023-04-18T14:26:23.356Z,41.37
2023-04-18T14:28:49.683Z,40.82
2023-04-18T14:31:16.039Z,40.82
2023-04-18T14:33:42.396Z,40.18
2023-04-18T14:36:08.718Z,40.61
2023-04-18T14:38:35.035Z,41.29
2023-04-18T14:41:01.353Z,41.16
2023-04-18T14:43:27.658Z,40.98
2023-04-18T14:45:53.996Z,40.44
2023-04-18T14:48:20.379Z,40.99
2023-04-18T14:50:46.723Z,40.99
2023-04-18T14:53:13.113Z,39.58
2023-04-18T14:55:39.490Z,40.52
2023-04-18T14:58:05.817Z,40.08
2023-04-18T15:00:32.155Z,39.00
2023-04-18T15:02:58.625Z,39.28
2023-04-18T15:05:25.071Z,38.89
2023-04-18T15:07:51.396Z,39.41
2023-04-18T15:10:17.721Z,39.64
2023-04-18T15:12:44.072Z,39.99
2023-04-18T15:15:10.416Z,39.48
2023-04-18T15:17:36.764Z,39.06
2023-04-18T15:20:03.095Z,39.17
2023-04-18T15:22:29.423Z,38.55
2023-04-18T15:24:55.745Z,38.71
2023-04-18T15:27:22.080Z,38.68
2023-04-18T15:29:48.384Z,39.08
2023-04-18T15:32:14.786Z,38.63
2023-04-18T15:34:41.179Z,37.84
2023-04-18T15:37:07.520Z,37.97
2023-04-18T15:39:33.828Z,38.28
2023-04-18T15:42:00.176Z,38.70
2023-04-18T15:44:26.501Z,38.90
2023-04-18T15:46:52.806Z,39.09
2023-04-18T15:49:19.113Z,39.13
2023-04-18T15:51:45.437Z,38.19
2023-04-18T15:54:11.847Z,38.70
2023-04-18T15:56:38.281Z,38.49
2023-04-18T15:59:04.601Z,37.63
2023-04-18T16:01:30.967Z,37.71
2023-04-18T16:03:57.478Z,37.51
2023-04-18T16:06:23.879Z,37.47
2023-04-18T16:08:50.182Z,38.15
2023-04-18T16:11:16.509Z,38.18
2023-04-18T16:13:42.813Z,38.20
2023-04-18T16:16:09.193Z,37.86
2023-04-18T16:18:35.547Z,37.93
2023-04-18T16:21:01.900Z,37.38
2023-04-18T16:23:28.237Z,37.22
2023-04-18T16:25:54.564Z,36.98
2023-04-18T16:28:20.911Z,37.94
2023-04-18T16:30:47.245Z,38.21
2023-04-18T16:33:13.653Z,37.76
2023-04-18T16:35:40.097Z,38.11
2023-04-18T16:38:06.426Z,38.43
2023-04-18T16:40:32.753Z,36.95
2023-04-18T16:42:59.094Z,37.49
2023-04-18T16:45:25.441Z,38.45
2023-04-18T16:47:51.767Z,38.28
2023-04-18T16:50:18.122Z,38.22
2023-04-18T16:52:44.449Z,38.72
2023-04-18T16:55:10.769Z,38.24
2023-04-18T16:57:37.082Z,39.12
2023-04-18T17:00:03.402Z,39.23
2023-04-18T17:02:29.944Z,38.91
2023-04-18T17:04:56.460Z,39.24
2023-04-18T17:07:22.899Z,39.77
2023-04-18T17:09:49.221Z,39.59
2023-04-18T17:12:15.564Z,40.09
2023-04-18T17:14:41.898Z,39.73
2023-04-18T17:17:08.209Z,39.59
2023-04-18T17:19:34.535Z,40.98
2023-04-18T17:22:00.851Z,40.44
2023-04-18T17:24:27.160Z,40.59
2023-04-18T17:26:53.493Z,40.75
2023-04-18T17:29:19.847Z,40.87
2023-04-18T17:31:46.206Z,40.85
2023-04-18T17:34:12.542Z,40.88
2023-04-18T17:36:38.873Z,41.08
2023-04-18T17:39:05.209Z,41.15
2023-04-18T17:41:31.551Z,41.46
2023-04-18T17:43:57.869Z,41.93
2023-04-18T17:46:24.215Z,42.62
2023-04-18T17:48:50.557Z,43.09
2023-04-18T17:51:16.890Z,43.37
2023-04-18T17:53:43.255Z,43.33
2023-04-18T17:56:09.597Z,43.72
2023-04-18T17:58:35.920Z,43.79
2023-04-18T18:01:02.321Z,43.84
2023-04-18T18:03:28.872Z,43.72
2023-04-18T18:05:55.348Z,44.33
2023-04-18T18:08:21.681Z,44.87
2023-04-18T18:10:48.020Z,45.08
2023-04-18T18:13:14.326Z,45.41
2023-04-18T18:15:40.668Z,45.65
2023-04-18T18:18:06.995Z,45.42
2023-04-18T18:20:33.360Z,44.70
2023-04-18T18:22:59.763Z,45.11
2023-04-18T18:25:26.148Z,45.38
2023-04-18T18:27:52.453Z,45.62
2023-04-18T18:30:18.768Z,45.50
2023-04-18T18:32:45.188Z,45.49
2023-04-18T18:35:11.506Z,45.77
2023-04-18T18:37:37.837Z,46.29
2023-04-18T18:40:04.165Z,46.55
2023-04-18T18:42:30.488Z,46.66
2023-04-18T18:44:56.804Z,46.77
2023-04-18T18:47:23.160Z,46.82
2023-04-18T18:49:49.498Z,47.17
2023-04-18T18:52:15.816Z,47.06
2023-04-18T18:54:42.121Z,46.97
2023-04-18T18:57:08.449Z,46.82
2023-04-18T18:59:34.820Z,47.60
2023-04-18T19:02:01.257Z,47.38
2023-04-18T19:04:27.819Z,47.31
2023-04-18T19:06:54.314Z,46.93
2023-04-18T19:09:20.647Z,47.75
2023-04-18T19:11:46.987Z,48.32
2023-04-18T19:14:13.310Z,48.60
2023-04-18T19:16:39.685Z,49.00
2023-04-18T19:19:06.084Z,48.51
2023-04-18T19:21:32.406Z,48.85
2023-04-18T19:23:58.730Z,49.05
2023-04-18T19:26:25.087Z,49.03
2023-04-18T19:28:51.420Z,50.03
2023-04-18T19:31:17.733Z,49.65
2023-04-18T19:33:44.063Z,50.59
2023-04-18T19:36:10.391Z,51.14
2023-04-18T19:38:36.694Z,50.99
2023-04-18T19:41:03.000Z,51.12
2023-04-18T19:43:29.310Z,51.16
2023-04-18T19:45:55.699Z,51.80
2023-04-18T19:48:22.153Z,51.86
2023-04-18T19:50:48.472Z,51.75
2023-04-18T19:53:14.805Z,51.86
2023-04-18T19:55:41.145Z,51.45
2023-04-18T19:58:07.471Z,50.75
2023-04-18T20:00:33.798Z,50.51
2023-04-18T20:03:00.334Z,50.09
2023-04-18T20:05:26.849Z,49.64
2023-04-18T20:07:53.211Z,49.94
2023-04-18T20:10:19.535Z,50.23
2023-04-18T20:12:46.286Z,50.25
2023-04-18T20:15:13.638Z,50.28
2023-04-18T20:17:39.972Z,50.93
2023-04-18T20:20:06.372Z,50.90
2023-04-18T20:22:32.699Z,51.08
2023-04-18T20:24:59.009Z,51.37
2023-04-18T20:27:25.350Z,51.28
2023-04-18T20:29:51.670Z,51.63
2023-04-18T20:32:18.115Z,50.89
2023-04-18T20:34:44.441Z,51.33
2023-04-18T20:37:10.797Z,51.25
2023-04-18T20:39:37.110Z,51.75
2023-04-18T20:42:03.434Z,51.35
2023-04-18T20:44:29.740Z,51.47
2023-04-18T20:46:56.061Z,51.37
2023-04-18T20:49:22.364Z,51.16
2023-04-18T20:51:48.700Z,51.35
2023-04-18T20:54:15.389Z,51.59
2023-04-18T20:56:41.868Z,51.56
2023-04-18T20:59:08.202Z,52.25
2023-04-18T21:01:36.773Z,52.34
2023-04-18T21:04:03.603Z,52.22
2023-04-18T21:06:30.031Z,52.85
2023-04-18T21:08:56.339Z,52.81
2023-04-18T21:11:22.684Z,52.55
2023-04-18T21:13:49.003Z,53.05
2023-04-18T21:16:15.348Z,53.23
2023-04-18T21:18:41.761Z,52.76
2023-04-18T21:21:08.077Z,53.11
2023-04-18T21:23:34.400Z,53.39
2023-04-18T21:26:00.711Z,53.14
2023-04-18T21:28:27.011Z,52.86
2023-04-18T21:30:53.352Z,53.02
2023-04-18T21:33:19.732Z,53.03
2023-04-18T21:35:46.046Z,53.37
2023-04-18T21:38:12.374Z,53.27
2023-04-18T21:40:38.701Z,53.00
2023-04-18T21:43:05.061Z,53.13
2023-04-18T21:45:31.422Z,53.70
2023-04-18T21:47:57.771Z,54.16
2023-04-18T21:50:24.090Z,54.61
2023-04-18T21:52:50.412Z,54.66
2023-04-18T21:55:16.734Z,54.63
2023-04-18T21:57:43.050Z,55.50
2023-04-18T22:00:10.515Z,55.23
2023-04-18T22:02:37.185Z,55.82
2023-04-18T22:05:03.577Z,55.94
2023-04-18T22:07:29.894Z,56.40
2023-04-18T22:09:56.216Z,56.60
2023-04-18T22:12:22.544Z,56.49
2023-04-18T22:14:48.856Z,56.73
2023-04-18T22:17:15.180Z,56.06
2023-04-18T22:19:41.501Z,56.48
2023-04-18T22:22:07.813Z,56.19
2023-04-18T22:24:34.148Z,56.15
2023-04-18T22:27:00.508Z,55.96
2023-04-18T22:29:26.836Z,56.14
2023-04-18T22:31:53.144Z,56.50
2023-04-18T22:34:19.473Z,55.75
2023-04-18T22:36:45.797Z,56.45
2023-04-18T22:39:12.132Z,55.83
2023-04-18T22:41:38.526Z,56.29
2023-04-18T22:44:04.848Z,56.18
2023-04-18T22:46:31.236Z,56.86
2023-04-18T22:48:57.596Z,56.25
2023-04-18T22:51:24.047Z,56.91
2023-04-18T22:53:50.384Z,57.49
2023-04-18T22:56:16.711Z,57.50
2023-04-18T22:58:43.044Z,57.21
2023-04-18T23:01:09.430Z,57.94
2023-04-18T23:03:35.930Z,57.74
2023-04-18T23:06:02.325Z,58.49
2023-04-18T23:08:28.628Z,58.17
2023-04-18T23:10:54.962Z,58.29
2023-04-18T23:13:21.285Z,58.72
2023-04-18T23:15:47.672Z,59.09
2023-04-18T23:18:14.023Z,58.46
2023-04-18T23:20:40.361Z,58.72
2023-04-18T23:23:06.686Z,58.49
2023-04-18T23:25:33.014Z,58.39
2023-04-18T23:27:59.325Z,58.22
2023-04-18T23:30:25.649Z,58.51
2023-04-18T23:32:51.987Z,59.07
2023-04-18T23:35:18.322Z,57.78
2023-04-18T23:37:44.673Z,58.14
2023-04-18T23:40:10.986Z,58.61
2023-04-18T23:42:37.296Z,58.03
2023-04-18T23:45:03.614Z,58.23
2023-04-18T23:47:30.048Z,58.02
2023-04-18T23:49:56.412Z,58.28
2023-04-18T23:52:22.748Z,59.02
2023-04-18T23:54:49.066Z,59.87
2023-04-18T23:57:15.374Z,60.05
2023-04-18T23:59:41.696Z,59.57
